createdAt,value
2024-03-08T00:00:19.925Z,36.00
2024-03-08T00:02:47.942Z,31.90
2024-03-08T00:05:15.951Z,33.63
2024-03-08T00:07:43.976Z,35.55
2024-03-08T00:10:13.381Z,33.53
2024-03-08T00:12:46.148Z,32.42
2024-03-08T00:15:16.268Z,33.25
2024-03-08T00:17:45.169Z,32.65
2024-03-08T00:20:12.242Z,32.38
2024-03-08T00:22:39.710Z,34.03
2024-03-08T00:25:09.924Z,31.45
2024-03-08T00:27:40.075Z,32.72
2024-03-08T00:30:07.986Z,30.60
2024-03-08T00:32:35.327Z,31.52
2024-03-08T00:35:05.161Z,35.05
2024-03-08T00:37:32.092Z,35.88
2024-03-08T00:39:58.852Z,32.30
2024-03-08T00:42:25.878Z,34.60
2024-03-08T00:44:53.253Z,33.03
2024-03-08T00:47:20.454Z,35.97
2024-03-08T00:49:47.710Z,30.73
2024-03-08T00:52:14.696Z,29.45
2024-03-08T00:54:41.601Z,33.17
2024-03-08T00:57:08.622Z,33.78
2024-03-08T00:59:39.863Z,31.75
2024-03-08T01:02:07.147Z,32.78
2024-03-08T01:04:34.308Z,32.90
2024-03-08T01:07:01.320Z,33.97
2024-03-08T01:09:28.431Z,34.88
2024-03-08T01:11:56.247Z,34.28
2024-03-08T01:14:24.666Z,34.33
2024-03-08T01:16:51.623Z,34.13
2024-03-08T01:19:18.888Z,32.95
2024-03-08T01:21:48.672Z,36.33
2024-03-08T01:24:15.405Z,31.38
2024-03-08T01:26:42.258Z,33.22
2024-03-08T01:29:09.171Z,30.67
2024-03-08T01:31:37.740Z,36.60
2024-03-08T01:34:04.643Z,31.85
2024-03-08T01:36:33.601Z,35.40
2024-03-08T01:39:00.461Z,39.00
2024-03-08T01:41:30.927Z,33.55
2024-03-08T01:43:57.903Z,31.23
2024-03-08T01:46:25.069Z,31.38
2024-03-08T01:48:52.469Z,33.03
2024-03-08T01:51:20.105Z,37.70
2024-03-08T01:53:48.014Z,34.22
2024-03-08T01:56:15.441Z,34.70
2024-03-08T01:58:45.897Z,36.35
2024-03-08T02:01:16.012Z,40.35
2024-03-08T02:03:44.909Z,31.95
2024-03-08T02:06:18.147Z,34.20
2024-03-08T02:08:46.002Z,33.95
2024-03-08T02:11:13.072Z,35.72
2024-03-08T02:13:39.990Z,39.28
2024-03-08T02:16:09.147Z,37.97
2024-03-08T02:18:36.441Z,34.72
2024-03-08T02:21:05.128Z,32.15
2024-03-08T02:23:33.659Z,35.90
2024-03-08T02:26:01.040Z,35.72
2024-03-08T02:28:27.812Z,30.92
2024-03-08T02:30:58.773Z,32.25
2024-03-08T02:33:27.778Z,35.50
2024-03-08T02:35:54.836Z,35.00
2024-03-08T02:38:23.852Z,36.13
2024-03-08T02:40:52.416Z,31.10
2024-03-08T02:43:20.774Z,35.33
2024-03-08T02:45:47.790Z,33.88
2024-03-08T02:48:15.879Z,30.95
2024-03-08T02:50:46.513Z,30.25
2024-03-08T02:53:14.453Z,33.97
2024-03-08T02:55:42.540Z,31.00
2024-03-08T02:58:11.369Z,35.42
2024-03-08T03:00:42.467Z,40.42
2024-03-08T03:03:10.060Z,31.80
2024-03-08T03:05:37.102Z,32.78
2024-03-08T03:08:09.686Z,31.60
2024-03-08T03:10:37.126Z,29.20
2024-03-08T03:13:06.177Z,32.47
2024-03-08T03:15:35.126Z,35.03
2024-03-08T03:18:02.760Z,31.25
2024-03-08T03:20:41.457Z,32.47
2024-03-08T03:23:10.152Z,36.15
2024-03-08T03:25:40.196Z,32.72
2024-03-08T03:28:08.950Z,27.20
2024-03-08T03:30:35.979Z,32.40
2024-03-08T03:33:07.685Z,31.95
2024-03-08T03:35:35.315Z,31.83
2024-03-08T03:38:09.897Z,32.10
2024-03-08T03:40:42.272Z,34.90
2024-03-08T03:43:12.070Z,31.15
2024-03-08T03:45:42.502Z,29.98
2024-03-08T03:48:11.657Z,38.60
2024-03-08T03:50:40.063Z,29.15
2024-03-08T03:53:11.484Z,33.28
2024-03-08T03:55:40.340Z,29.08
2024-03-08T03:58:08.251Z,29.48
2024-03-08T04:00:35.088Z,28.73
2024-03-08T04:03:02.427Z,34.03
2024-03-08T04:05:29.606Z,28.70
2024-03-08T04:07:56.466Z,32.08
2024-03-08T04:10:23.260Z,26.52
2024-03-08T04:12:50.150Z,33.25
2024-03-08T04:15:17.016Z,32.55
2024-03-08T04:17:44.128Z,28.35
2024-03-08T04:20:11.685Z,28.45
2024-03-08T04:22:41.814Z,31.23
2024-03-08T04:25:10.444Z,30.45
2024-03-08T04:27:37.516Z,29.02
2024-03-08T04:30:05.178Z,29.50
2024-03-08T04:32:33.559Z,31.52
2024-03-08T04:35:02.851Z,28.52
2024-03-08T04:37:33.020Z,31.23
2024-03-08T04:40:00.372Z,34.22
2024-03-08T04:42:29.829Z,27.52
2024-03-08T04:44:56.901Z,33.42
2024-03-08T04:47:23.711Z,31.85
2024-03-08T04:49:51.522Z,30.52
2024-03-08T04:52:18.552Z,31.55
2024-03-08T04:54:48.114Z,34.35
2024-03-08T04:57:15.006Z,29.17
2024-03-08T04:59:41.856Z,29.08
2024-03-08T05:02:08.744Z,31.95
2024-03-08T05:04:36.304Z,30.73
2024-03-08T05:07:03.569Z,31.08
2024-03-08T05:09:32.619Z,33.10
2024-03-08T05:12:00.410Z,30.05
2024-03-08T05:14:30.726Z,31.40
2024-03-08T05:16:57.533Z,29.85
2024-03-08T05:19:24.728Z,33.50
2024-03-08T05:21:51.490Z,31.35
2024-03-08T05:24:19.156Z,30.38
2024-03-08T05:26:47.778Z,28.33
2024-03-08T05:29:17.649Z,34.53
2024-03-08T05:31:51.226Z,33.00
2024-03-08T05:34:18.610Z,29.80
2024-03-08T05:36:46.127Z,29.98
2024-03-08T05:39:21.187Z,31.67
2024-03-08T05:41:56.348Z,28.65
2024-03-08T05:44:23.579Z,33.47
2024-03-08T05:46:51.618Z,33.78
2024-03-08T05:49:19.108Z,30.80
2024-03-08T05:51:46.053Z,31.80
2024-03-08T05:54:15.516Z,30.40
2024-03-08T05:56:45.101Z,32.80
2024-03-08T05:59:14.659Z,29.98
2024-03-08T06:01:43.056Z,32.83
2024-03-08T06:04:11.782Z,27.83
2024-03-08T06:06:38.961Z,32.58
2024-03-08T06:09:12.614Z,31.42
2024-03-08T06:11:39.771Z,32.42
2024-03-08T06:14:07.786Z,36.78
2024-03-08T06:16:34.832Z,35.92
2024-03-08T06:19:03.501Z,31.40
2024-03-08T06:21:30.356Z,30.73
2024-03-08T06:23:58.677Z,36.15
2024-03-08T06:26:28.981Z,31.85
2024-03-08T06:28:57.648Z,37.38
2024-03-08T06:31:24.894Z,35.95
2024-03-08T06:33:52.231Z,35.50
2024-03-08T06:36:26.001Z,34.72
2024-03-08T06:38:53.379Z,37.70
2024-03-08T06:41:20.332Z,31.08
2024-03-08T06:43:49.657Z,29.20
2024-03-08T06:46:17.166Z,34.05
2024-03-08T06:48:44.492Z,39.33
2024-03-08T06:51:12.145Z,36.72
2024-03-08T06:53:40.745Z,37.60
2024-03-08T06:56:09.365Z,31.85
2024-03-08T06:58:36.345Z,36.58
2024-03-08T07:01:05.435Z,35.70
2024-03-08T07:03:33.469Z,38.17
2024-03-08T07:06:00.791Z,36.80
2024-03-08T07:08:28.221Z,40.88
2024-03-08T07:10:59.327Z,36.00
2024-03-08T07:13:29.150Z,39.55
2024-03-08T07:15:56.292Z,31.88
2024-03-08T07:18:23.424Z,38.83
2024-03-08T07:20:50.452Z,34.60
2024-03-08T07:23:35.829Z,38.53
2024-03-08T07:26:02.629Z,36.33
2024-03-08T07:28:31.977Z,33.60
2024-03-08T07:31:22.553Z,36.50
2024-03-08T07:33:51.822Z,37.58
2024-03-08T07:36:18.958Z,31.98
2024-03-08T07:38:48.059Z,40.88
2024-03-08T07:41:16.464Z,36.65
2024-03-08T07:43:43.683Z,34.65
2024-03-08T07:46:14.385Z,37.33
2024-03-08T07:48:41.835Z,38.45
2024-03-08T07:51:10.557Z,35.00
2024-03-08T07:53:37.562Z,34.10
2024-03-08T07:56:05.999Z,31.30
2024-03-08T07:58:34.011Z,35.03
2024-03-08T08:01:02.067Z,32.55
2024-03-08T08:03:29.407Z,34.10
2024-03-08T08:05:56.193Z,32.08
2024-03-08T08:08:24.277Z,34.88
2024-03-08T08:10:51.075Z,35.80
2024-03-08T08:13:19.090Z,36.65
2024-03-08T08:15:46.871Z,33.05
2024-03-08T08:18:15.205Z,37.63
2024-03-08T08:20:42.287Z,30.77
2024-03-08T08:23:09.966Z,35.80
2024-03-08T08:25:36.932Z,32.17
2024-03-08T08:28:05.286Z,28.02
2024-03-08T08:30:34.019Z,33.97
2024-03-08T08:33:01.879Z,40.25
2024-03-08T08:35:30.079Z,31.40
2024-03-08T08:37:57.140Z,29.13
2024-03-08T08:40:24.106Z,30.83
2024-03-08T08:42:51.191Z,28.25
2024-03-08T08:45:22.256Z,32.22
2024-03-08T08:47:51.638Z,34.00
2024-03-08T08:50:24.091Z,29.15
2024-03-08T08:52:51.196Z,36.55
2024-03-08T08:55:24.129Z,30.65
2024-03-08T08:57:52.883Z,28.23
2024-03-08T09:00:21.548Z,32.92
2024-03-08T09:02:49.644Z,33.78
2024-03-08T09:05:19.338Z,30.17
2024-03-08T09:07:46.356Z,33.95
2024-03-08T09:10:17.929Z,32.08
2024-03-08T09:12:45.652Z,30.42
2024-03-08T09:15:13.238Z,33.50
2024-03-08T09:17:43.493Z,28.52
2024-03-08T09:20:16.315Z,30.35
2024-03-08T09:22:47.171Z,33.35
2024-03-08T09:25:14.280Z,29.73
2024-03-08T09:27:42.226Z,29.45
2024-03-08T09:30:09.512Z,27.70
2024-03-08T09:32:37.735Z,27.88
2024-03-08T09:35:08.031Z,31.55
2024-03-08T09:37:35.383Z,29.98
2024-03-08T09:40:05.576Z,26.58
2024-03-08T09:42:32.996Z,29.00
2024-03-08T09:45:00.202Z,32.40
2024-03-08T09:47:34.865Z,29.38
2024-03-08T09:50:02.313Z,30.67
2024-03-08T09:52:32.073Z,31.15
2024-03-08T09:54:59.062Z,28.08
2024-03-08T09:57:27.043Z,27.95
2024-03-08T09:59:54.018Z,27.92
2024-03-08T10:02:22.249Z,29.13
2024-03-08T10:04:52.478Z,23.80
2024-03-08T10:07:19.336Z,24.98
2024-03-08T10:09:51.413Z,23.98
2024-03-08T10:12:20.334Z,26.20
2024-03-08T10:14:47.492Z,25.20
2024-03-08T10:17:14.660Z,25.08
2024-03-08T10:19:51.721Z,22.33
2024-03-08T10:22:19.811Z,24.85
2024-03-08T10:24:48.031Z,24.65
2024-03-08T10:27:17.868Z,23.75
2024-03-08T10:29:48.911Z,21.42
2024-03-08T10:32:15.852Z,21.58
2024-03-08T10:34:43.040Z,24.00
2024-03-08T10:37:18.392Z,20.40
2024-03-08T10:39:50.264Z,21.52
2024-03-08T10:42:22.256Z,19.40
2024-03-08T10:45:07.273Z,19.77
2024-03-08T10:47:42.128Z,21.10
2024-03-08T10:50:24.562Z,19.83
2024-03-08T10:55:21.741Z,20.40
2024-03-08T10:57:49.397Z,22.13
2024-03-08T11:00:26.825Z,20.83
2024-03-08T11:02:55.144Z,19.58
2024-03-08T11:05:44.453Z,19.33
2024-03-08T11:08:22.095Z,18.38
2024-03-08T11:10:58.420Z,20.85
2024-03-08T11:13:37.817Z,23.00
2024-03-08T11:16:11.865Z,20.67
2024-03-08T11:18:39.029Z,19.60
2024-03-08T11:21:13.791Z,19.55
2024-03-08T11:23:41.179Z,20.77
2024-03-08T11:26:25.871Z,18.95
2024-03-08T11:28:57.183Z,19.17
2024-03-08T11:31:26.498Z,18.85
2024-03-08T11:33:54.732Z,17.38
2024-03-08T11:36:25.437Z,18.00
2024-03-08T11:38:53.990Z,16.95
2024-03-08T11:41:22.442Z,18.50
2024-03-08T11:43:50.270Z,17.77
2024-03-08T11:46:18.704Z,16.10
2024-03-08T11:48:48.704Z,14.43
2024-03-08T11:51:16.434Z,24.80
2024-03-08T11:53:46.129Z,14.05
2024-03-08T11:56:21.582Z,16.90
2024-03-08T11:59:01.922Z,14.80
2024-03-08T12:01:28.928Z,15.43
2024-03-08T12:03:59.912Z,15.23
2024-03-08T12:06:37.852Z,18.02
2024-03-08T12:09:04.540Z,15.20
2024-03-08T12:11:33.601Z,16.25
2024-03-08T12:14:02.509Z,22.33
2024-03-08T12:16:29.476Z,17.33
2024-03-08T12:19:02.572Z,13.48
2024-03-08T12:21:30.517Z,17.08
2024-03-08T12:24:04.847Z,13.60
2024-03-08T12:26:33.427Z,17.23
2024-03-08T12:29:25.408Z,14.65
2024-03-08T12:31:54.741Z,17.42
2024-03-08T12:34:22.118Z,15.57
2024-03-08T12:36:51.355Z,18.27
2024-03-08T12:39:22.944Z,15.45
2024-03-08T12:41:52.710Z,17.05
2024-03-08T12:44:22.522Z,17.17
2024-03-08T12:46:53.115Z,23.63
2024-03-08T12:49:23.448Z,18.23
2024-03-08T12:51:50.670Z,15.07
2024-03-08T12:54:17.446Z,14.63
2024-03-08T12:56:44.149Z,15.13
2024-03-08T12:59:14.238Z,15.05
2024-03-08T13:01:41.437Z,18.05
2024-03-08T13:04:12.195Z,14.98
2024-03-08T13:06:38.945Z,17.08
2024-03-08T13:09:06.636Z,15.18
2024-03-08T13:11:38.183Z,16.38
2024-03-08T13:14:06.619Z,15.57
2024-03-08T13:16:35.849Z,17.35
2024-03-08T13:19:02.876Z,16.38
2024-03-08T13:21:31.269Z,17.73
2024-03-08T13:24:00.247Z,15.85
2024-03-08T13:26:33.711Z,16.40
2024-03-08T13:29:04.078Z,17.80
2024-03-08T13:31:31.005Z,16.50
2024-03-08T13:33:59.670Z,14.65
2024-03-08T13:36:30.432Z,15.80
2024-03-08T13:39:00.086Z,17.95
2024-03-08T13:41:27.008Z,18.13
2024-03-08T13:43:54.412Z,19.98
2024-03-08T13:46:21.407Z,18.05
2024-03-08T13:48:49.012Z,18.13
2024-03-08T13:51:19.633Z,16.25
2024-03-08T13:53:46.374Z,18.08
2024-03-08T13:56:13.386Z,20.20
2024-03-08T13:58:41.753Z,21.50
2024-03-08T14:01:12.936Z,18.48
2024-03-08T14:03:42.936Z,16.50
2024-03-08T14:06:10.633Z,18.13
2024-03-08T14:08:40.585Z,17.48
2024-03-08T14:11:14.628Z,20.77
2024-03-08T14:13:48.165Z,17.42
2024-03-08T14:16:16.213Z,19.08
2024-03-08T14:18:43.108Z,18.15
2024-03-08T14:21:09.913Z,28.65
2024-03-08T14:23:37.308Z,16.27
2024-03-08T14:26:09.097Z,17.98
2024-03-08T14:31:06.942Z,23.95
2024-03-08T14:33:34.522Z,17.40
2024-03-08T14:36:02.105Z,19.67
2024-03-08T14:38:28.983Z,16.25
2024-03-08T14:40:56.534Z,18.70
2024-03-08T14:43:23.826Z,21.38
2024-03-08T14:45:51.829Z,17.33
2024-03-08T14:48:18.722Z,18.52
2024-03-08T14:50:48.287Z,17.55
2024-03-08T14:53:17.191Z,17.58
2024-03-08T14:55:48.403Z,18.25
2024-03-08T14:58:15.841Z,19.33
2024-03-08T15:00:43.119Z,21.13
2024-03-08T15:03:14.070Z,19.38
2024-03-08T15:05:43.634Z,19.27
2024-03-08T15:08:11.887Z,21.08
2024-03-08T15:10:42.033Z,15.88
2024-03-08T15:13:15.530Z,19.30
2024-03-08T15:15:44.389Z,17.38
2024-03-08T15:18:15.047Z,20.98
2024-03-08T15:20:44.284Z,19.73
2024-03-08T15:23:11.391Z,20.45
2024-03-08T15:25:40.041Z,17.33
2024-03-08T15:28:14.071Z,18.05
2024-03-08T15:30:47.880Z,21.70
2024-03-08T15:33:16.520Z,19.17
2024-03-08T15:35:48.198Z,18.17
2024-03-08T15:38:16.393Z,18.75
2024-03-08T15:40:43.252Z,21.25
2024-03-08T15:43:10.025Z,18.48
2024-03-08T15:45:37.857Z,19.15
2024-03-08T15:48:06.558Z,21.48
2024-03-08T15:50:36.145Z,17.45
2024-03-08T15:53:03.092Z,19.60
2024-03-08T15:55:30.650Z,19.45
2024-03-08T15:57:57.587Z,19.48
2024-03-08T16:00:43.462Z,18.05
2024-03-08T16:03:13.235Z,17.02
2024-03-08T16:05:43.327Z,17.77
2024-03-08T16:08:19.017Z,19.90
2024-03-08T16:10:50.528Z,19.73
2024-03-08T16:13:18.723Z,17.88
2024-03-08T16:15:47.610Z,17.73
2024-03-08T16:18:16.290Z,20.33
2024-03-08T16:20:48.222Z,20.85
2024-03-08T16:23:15.566Z,19.55
2024-03-08T16:25:43.493Z,18.63
2024-03-08T16:28:12.078Z,19.27
2024-03-08T16:30:47.129Z,17.50
2024-03-08T16:33:14.876Z,15.95
2024-03-08T16:35:45.826Z,16.40
2024-03-08T16:38:14.052Z,20.13
2024-03-08T16:40:45.574Z,18.90
2024-03-08T16:43:12.635Z,22.23
2024-03-08T16:45:40.505Z,19.27
2024-03-08T16:48:08.742Z,22.80
2024-03-08T16:50:37.912Z,20.95
2024-03-08T16:53:05.385Z,19.23
2024-03-08T16:55:32.755Z,21.42
2024-03-08T16:57:59.824Z,19.13
2024-03-08T17:00:30.059Z,22.08
2024-03-08T17:02:58.771Z,20.05
2024-03-08T17:05:29.742Z,19.85
2024-03-08T17:07:58.472Z,18.63
2024-03-08T17:10:28.293Z,19.73
2024-03-08T17:12:59.390Z,19.38
2024-03-08T17:15:27.568Z,21.67
2024-03-08T17:18:02.452Z,20.83
2024-03-08T17:20:29.531Z,21.60
2024-03-08T17:22:59.305Z,23.27
2024-03-08T17:25:28.948Z,19.27
2024-03-08T17:27:57.489Z,27.85
2024-03-08T17:30:29.366Z,20.30
2024-03-08T17:33:04.651Z,21.08
2024-03-08T17:35:34.917Z,22.90
2024-03-08T17:38:09.696Z,21.45
2024-03-08T17:40:39.059Z,24.45
2024-03-08T17:43:14.633Z,21.73
2024-03-08T17:45:47.179Z,22.55
2024-03-08T17:48:17.392Z,22.67
2024-03-08T17:50:45.278Z,23.67
2024-03-08T17:53:13.404Z,26.45
2024-03-08T17:55:43.190Z,23.15
2024-03-08T17:58:16.491Z,22.45
2024-03-08T18:00:45.034Z,22.35
2024-03-08T18:03:13.684Z,25.73
2024-03-08T18:05:43.001Z,27.17
2024-03-08T18:08:10.271Z,25.40
2024-03-08T18:10:37.623Z,26.13
2024-03-08T18:13:16.809Z,24.67
2024-03-08T18:15:44.728Z,27.30
2024-03-08T18:18:13.174Z,25.35
2024-03-08T18:20:48.143Z,23.33
2024-03-08T18:23:16.821Z,29.52
2024-03-08T18:25:45.824Z,24.27
2024-03-08T18:28:13.653Z,23.33
2024-03-08T18:30:42.290Z,30.17
2024-03-08T18:33:09.838Z,27.48
2024-03-08T18:35:39.388Z,27.25
2024-03-08T18:38:08.850Z,26.13
2024-03-08T18:40:36.003Z,25.52
2024-03-08T18:43:03.079Z,26.80
2024-03-08T18:45:30.212Z,27.67
2024-03-08T18:47:57.568Z,26.17
2024-03-08T18:50:26.464Z,25.60
2024-03-08T18:52:53.890Z,24.48
2024-03-08T18:55:32.485Z,27.58
2024-03-08T18:58:02.164Z,27.27
2024-03-08T19:00:39.902Z,26.85
2024-03-08T19:03:14.544Z,25.30
2024-03-08T19:05:43.036Z,26.80
2024-03-08T19:08:14.062Z,24.35
2024-03-08T19:10:42.262Z,27.90
2024-03-08T19:13:12.407Z,27.00
2024-03-08T19:15:39.541Z,30.23
2024-03-08T19:18:08.942Z,27.02
2024-03-08T19:20:36.960Z,27.27
2024-03-08T19:23:10.157Z,27.40
2024-03-08T19:25:42.445Z,29.75
2024-03-08T19:28:11.562Z,26.92
2024-03-08T19:30:38.677Z,28.50
2024-03-08T19:33:13.136Z,26.52
2024-03-08T19:35:41.330Z,25.33
2024-03-08T19:38:11.819Z,26.52
2024-03-08T19:40:42.604Z,30.95
2024-03-08T19:43:11.456Z,28.80
2024-03-08T19:45:44.089Z,27.60
2024-03-08T19:48:17.279Z,33.15
2024-03-08T19:50:45.013Z,30.15
2024-03-08T19:53:12.567Z,30.38
2024-03-08T19:55:41.309Z,26.58
2024-03-08T19:58:11.007Z,29.92
2024-03-08T20:00:38.091Z,30.60
2024-03-08T20:03:08.396Z,29.75
2024-03-08T20:05:35.731Z,34.45
2024-03-08T20:08:09.444Z,29.83
2024-03-08T20:10:37.984Z,29.08
2024-03-08T20:13:08.532Z,27.52
2024-03-08T20:15:41.286Z,28.83
2024-03-08T20:18:10.296Z,28.77
2024-03-08T20:20:38.574Z,27.70
2024-03-08T20:23:08.895Z,27.63
2024-03-08T20:25:37.511Z,29.58
2024-03-08T20:28:07.006Z,32.60
2024-03-08T20:30:34.198Z,27.98
2024-03-08T20:33:05.605Z,30.33
2024-03-08T20:35:35.246Z,28.50
2024-03-08T20:38:21.780Z,29.33
2024-03-08T20:40:50.786Z,28.15
2024-03-08T20:43:19.042Z,30.17
2024-03-08T20:45:47.535Z,30.33
2024-03-08T20:48:16.024Z,29.83
2024-03-08T20:50:43.726Z,32.55
2024-03-08T20:53:14.905Z,29.88
2024-03-08T20:55:45.482Z,29.60
2024-03-08T20:58:12.721Z,34.47
2024-03-08T21:00:40.245Z,29.77
2024-03-08T21:03:17.415Z,32.08
2024-03-08T21:05:45.324Z,29.48
2024-03-08T21:08:13.664Z,32.58
2024-03-08T21:10:43.031Z,32.53
2024-03-08T21:13:11.008Z,29.60
2024-03-08T21:15:38.552Z,33.13
2024-03-08T21:18:05.601Z,32.78
2024-03-08T21:20:33.939Z,31.88
2024-03-08T21:23:00.886Z,33.72
2024-03-08T21:25:30.816Z,33.53
2024-03-08T21:28:05.436Z,35.75
2024-03-08T21:30:32.632Z,34.38
2024-03-08T21:33:00.709Z,34.83
2024-03-08T21:35:27.744Z,32.58
2024-03-08T21:37:54.603Z,31.10
2024-03-08T21:40:27.784Z,31.60
2024-03-08T21:42:55.640Z,30.52
2024-03-08T21:45:28.598Z,31.52
2024-03-08T21:47:56.887Z,30.92
2024-03-08T21:50:23.907Z,30.90
2024-03-08T21:52:53.455Z,36.70
2024-03-08T21:55:20.221Z,33.92
2024-03-08T21:57:47.427Z,29.70
2024-03-08T22:00:18.405Z,35.83
2024-03-08T22:02:48.784Z,36.58
2024-03-08T22:05:21.563Z,35.55
2024-03-08T22:07:49.685Z,30.77
2024-03-08T22:10:27.111Z,36.08
2024-03-08T22:12:56.042Z,33.65
2024-03-08T22:15:24.494Z,33.50
2024-03-08T22:17:56.823Z,34.95
2024-03-08T22:20:27.906Z,34.03
2024-03-08T22:22:56.114Z,39.15
2024-03-08T22:25:23.314Z,38.47
2024-03-08T22:27:51.158Z,36.65
2024-03-08T22:30:23.967Z,36.72
2024-03-08T22:32:56.245Z,35.40
2024-03-08T22:35:25.092Z,41.88
2024-03-08T22:37:52.441Z,39.53
2024-03-08T22:40:24.630Z,37.00
2024-03-08T22:42:57.404Z,39.70
2024-03-08T22:45:24.927Z,40.70
2024-03-08T22:47:52.430Z,34.55
2024-03-08T22:50:19.771Z,41.30
2024-03-08T22:52:48.929Z,42.00
2024-03-08T22:55:22.487Z,37.85
2024-03-08T22:57:50.612Z,37.63
2024-03-08T23:00:27.915Z,38.38
2024-03-08T23:02:57.188Z,37.38
2024-03-08T23:05:25.241Z,36.47
2024-03-08T23:07:53.763Z,36.75
2024-03-08T23:10:29.274Z,40.45
2024-03-08T23:12:57.794Z,40.63
2024-03-08T23:15:29.615Z,50.92
2024-03-08T23:17:57.845Z,43.90
2024-03-08T23:20:33.048Z,37.50
2024-03-08T23:23:05.173Z,38.45
2024-03-08T23:25:35.374Z,36.53
2024-03-08T23:28:02.895Z,43.22
2024-03-08T23:30:30.228Z,37.13
2024-03-08T23:32:59.162Z,39.45
2024-03-08T23:35:28.531Z,38.90
2024-03-08T23:37:55.934Z,40.40
2024-03-08T23:40:24.520Z,37.13
2024-03-08T23:42:57.624Z,39.10
2024-03-08T23:45:24.634Z,40.35
2024-03-08T23:47:54.394Z,35.92
2024-03-08T23:50:31.010Z,36.30
2024-03-08T23:53:01.416Z,38.35
2024-03-08T23:55:34.233Z,38.90
